sensor_id;sensor_type;location;lat;lon;timestamp;P1;durP1;ratioP1;P2;durP2;ratioP2
77495;SDS011;66600;48.378;9.948;2023-12-29T00:00:27;16.38;;;11.95;;
77495;SDS011;66600;48.378;9.948;2023-12-29T00:00:57;17.52;;;11.82;;
77495;SDS011;66600;48.378;9.948;2023-12-29T00:01:31;17.98;;;12.30;;
77495;SDS011;66600;48.378;9.948;2023-12-29T00:02:01;17.50;;;11.98;;
77495;SDS011;66600;48.378;9.948;2023-12-29T00:02:32;16.60;;;12.38;;
77495;SDS011;66600;48.378;9.948;2023-12-29T00:03:02;16.30;;;11.48;;
77495;SDS011;66600;48.378;9.948;2023-12-29T00:03:33;18.52;;;12.50;;
77495;SDS011;66600;48.378;9.948;2023-12-29T00:04:05;15.27;;;11.25;;
77495;SDS011;66600;48.378;9.948;2023-12-29T00:04:35;16.70;;;11.95;;
77495;SDS011;66600;48.378;9.948;2023-12-29T00:05:05;17.42;;;11.73;;
77495;SDS011;66600;48.378;9.948;2023-12-29T00:05:36;18.85;;;11.98;;
77495;SDS011;66600;48.378;9.948;2023-12-29T00:06:06;17.73;;;12.05;;
77495;SDS011;66600;48.378;9.948;2023-12-29T00:06:37;18.48;;;12.05;;
77495;SDS011;66600;48.378;9.948;2023-12-29T00:07:08;16.85;;;11.95;;
77495;SDS011;66600;48.378;9.948;2023-12-29T00:07:39;19.55;;;12.45;;
77495;SDS011;66600;48.378;9.948;2023-12-29T00:08:09;18.08;;;12.20;;
77495;SDS011;66600;48.378;9.948;2023-12-29T00:08:39;18.45;;;12.50;;
77495;SDS011;66600;48.378;9.948;2023-12-29T00:09:10;18.48;;;12.38;;
77495;SDS011;66600;48.378;9.948;2023-12-29T00:09:41;17.67;;;12.40;;
77495;SDS011;66600;48.378;9.948;2023-12-29T00:10:11;16.95;;;12.02;;
77495;SDS011;66600;48.378;9.948;2023-12-29T00:10:41;17.35;;;12.23;;
77495;SDS011;66600;48.378;9.948;2023-12-29T00:11:18;20.75;;;13.65;;
77495;SDS011;66600;48.378;9.948;2023-12-29T00:11:50;21.08;;;13.13;;
77495;SDS011;66600;48.378;9.948;2023-12-29T00:12:21;19.15;;;12.70;;
77495;SDS011;66600;48.378;9.948;2023-12-29T00:12:51;18.63;;;12.95;;
77495;SDS011;66600;48.378;9.948;2023-12-29T00:13:21;19.90;;;12.63;;
77495;SDS011;66600;48.378;9.948;2023-12-29T00:13:53;20.60;;;13.90;;
77495;SDS011;66600;48.378;9.948;2023-12-29T00:14:24;18.70;;;12.13;;
77495;SDS011;66600;48.378;9.948;2023-12-29T00:14:56;17.60;;;12.38;;
77495;SDS011;66600;48.378;9.948;2023-12-29T00:15:26;18.00;;;12.43;;
77495;SDS011;66600;48.378;9.948;2023-12-29T00:15:56;17.63;;;12.40;;
77495;SDS011;66600;48.378;9.948;2023-12-29T00:16:27;17.52;;;12.27;;
77495;SDS011;66600;48.378;9.948;2023-12-29T00:16:58;20.15;;;13.23;;
77495;SDS011;66600;48.378;9.948;2023-12-29T00:17:28;17.33;;;12.73;;
77495;SDS011;66600;48.378;9.948;2023-12-29T00:17:58;18.73;;;12.32;;
77495;SDS011;66600;48.378;9.948;2023-12-29T00:18:29;19.63;;;12.20;;
77495;SDS011;66600;48.378;9.948;2023-12-29T00:18:59;18.25;;;12.52;;
77495;SDS011;66600;48.378;9.948;2023-12-29T00:19:29;16.83;;;12.43;;
77495;SDS011;66600;48.378;9.948;2023-12-29T00:19:59;17.98;;;13.07;;
77495;SDS011;66600;48.378;9.948;2023-12-29T00:20:30;17.20;;;12.20;;
77495;SDS011;66600;48.378;9.948;2023-12-29T00:21:00;16.30;;;12.00;;
77495;SDS011;66600;48.378;9.948;2023-12-29T00:21:31;16.10;;;12.18;;
77495;SDS011;66600;48.378;9.948;2023-12-29T00:22:01;16.88;;;12.30;;
77495;SDS011;66600;48.378;9.948;2023-12-29T00:22:33;19.88;;;12.43;;
77495;SDS011;66600;48.378;9.948;2023-12-29T00:23:03;17.52;;;12.02;;
77495;SDS011;66600;48.378;9.948;2023-12-29T00:23:34;18.33;;;12.82;;
77495;SDS011;66600;48.378;9.948;2023-12-29T00:24:04;17.55;;;11.88;;
77495;SDS011;66600;48.378;9.948;2023-12-29T00:24:35;15.75;;;11.70;;
77495;SDS011;66600;48.378;9.948;2023-12-29T00:25:05;19.30;;;12.57;;
77495;SDS011;66600;48.378;9.948;2023-12-29T00:25:38;17.73;;;12.13;;
77495;SDS011;66600;48.378;9.948;2023-12-29T00:26:09;15.98;;;11.32;;
77495;SDS011;66600;48.378;9.948;2023-12-29T00:26:39;16.80;;;12.18;;
77495;SDS011;66600;48.378;9.948;2023-12-29T00:27:09;16.08;;;11.38;;
77495;SDS011;66600;48.378;9.948;2023-12-29T00:27:40;19.17;;;12.00;;
77495;SDS011;66600;48.378;9.948;2023-12-29T00:28:10;17.30;;;11.65;;
77495;SDS011;66600;48.378;9.948;2023-12-29T00:28:41;18.15;;;12.05;;
77495;SDS011;66600;48.378;9.948;2023-12-29T00:29:11;17.77;;;11.57;;
77495;SDS011;66600;48.378;9.948;2023-12-29T00:29:42;18.83;;;12.75;;
77495;SDS011;66600;48.378;9.948;2023-12-29T00:30:13;17.30;;;12.40;;
77495;SDS011;66600;48.378;9.948;2023-12-29T00:30:43;17.10;;;11.32;;
77495;SDS011;66600;48.378;9.948;2023-12-29T00:31:14;18.58;;;11.82;;
77495;SDS011;66600;48.378;9.948;2023-12-29T00:31:47;17.45;;;12.55;;
77495;SDS011;66600;48.378;9.948;2023-12-29T00:32:18;19.70;;;12.70;;
77495;SDS011;66600;48.378;9.948;2023-12-29T00:32:48;16.10;;;11.90;;
77495;SDS011;66600;48.378;9.948;2023-12-29T00:33:18;17.23;;;12.40;;
77495;SDS011;66600;48.378;9.948;2023-12-29T00:33:49;18.20;;;12.32;;
77495;SDS011;66600;48.378;9.948;2023-12-29T00:34:22;16.67;;;12.02;;
77495;SDS011;66600;48.378;9.948;2023-12-29T00:34:52;16.25;;;11.30;;
77495;SDS011;66600;48.378;9.948;2023-12-29T00:35:22;17.38;;;11.30;;
77495;SDS011;66600;48.378;9.948;2023-12-29T00:35:53;16.48;;;11.68;;
77495;SDS011;66600;48.378;9.948;2023-12-29T00:36:23;18.23;;;11.82;;
77495;SDS011;66600;48.378;9.948;2023-12-29T00:36:54;17.23;;;10.98;;
77495;SDS011;66600;48.378;9.948;2023-12-29T00:37:24;16.50;;;11.38;;
77495;SDS011;66600;48.378;9.948;2023-12-29T00:37:55;16.88;;;11.68;;
77495;SDS011;66600;48.378;9.948;2023-12-29T00:38:28;16.38;;;11.55;;
77495;SDS011;66600;48.378;9.948;2023-12-29T00:38:59;17.05;;;12.05;;
77495;SDS011;66600;48.378;9.948;2023-12-29T00:39:30;18.33;;;11.63;;
77495;SDS011;66600;48.378;9.948;2023-12-29T00:40:01;16.33;;;11.50;;
77495;SDS011;66600;48.378;9.948;2023-12-29T00:40:31;15.93;;;11.25;;
77495;SDS011;66600;48.378;9.948;2023-12-29T00:41:02;16.95;;;11.95;;
77495;SDS011;66600;48.378;9.948;2023-12-29T00:41:34;17.10;;;11.73;;
77495;SDS011;66600;48.378;9.948;2023-12-29T00:42:05;17.02;;;11.55;;
77495;SDS011;66600;48.378;9.948;2023-12-29T00:42:36;15.70;;;11.75;;
77495;SDS011;66600;48.378;9.948;2023-12-29T00:43:07;16.73;;;11.55;;
77495;SDS011;66600;48.378;9.948;2023-12-29T00:43:37;15.30;;;10.77;;
77495;SDS011;66600;48.378;9.948;2023-12-29T00:44:07;16.30;;;11.63;;
77495;SDS011;66600;48.378;9.948;2023-12-29T00:44:38;16.42;;;11.43;;
77495;SDS011;66600;48.378;9.948;2023-12-29T00:45:09;19.85;;;11.13;;
77495;SDS011;66600;48.378;9.948;2023-12-29T00:45:39;17.50;;;11.88;;
77495;SDS011;66600;48.378;9.948;2023-12-29T00:46:10;15.88;;;11.15;;
77495;SDS011;66600;48.378;9.948;2023-12-29T00:46:40;16.42;;;11.02;;
77495;SDS011;66600;48.378;9.948;2023-12-29T00:47:10;15.43;;;10.82;;
77495;SDS011;66600;48.378;9.948;2023-12-29T00:47:41;16.85;;;11.10;;
77495;SDS011;66600;48.378;9.948;2023-12-29T00:48:11;14.48;;;10.00;;
77495;SDS011;66600;48.378;9.948;2023-12-29T00:48:41;18.60;;;11.05;;
77495;SDS011;66600;48.378;9.948;2023-12-29T00:49:12;16.48;;;11.23;;
77495;SDS011;66600;48.378;9.948;2023-12-29T00:49:43;16.48;;;10.93;;
77495;SDS011;66600;48.378;9.948;2023-12-29T00:50:13;15.95;;;10.70;;
77495;SDS011;66600;48.378;9.948;2023-12-29T00:50:44;15.48;;;11.02;;
77495;SDS011;66600;48.378;9.948;2023-12-29T00:51:14;15.20;;;10.38;;
77495;SDS011;66600;48.378;9.948;2023-12-29T00:51:46;15.25;;;10.98;;
77495;SDS011;66600;48.378;9.948;2023-12-29T00:52:17;15.68;;;11.13;;
77495;SDS011;66600;48.378;9.948;2023-12-29T00:52:48;14.20;;;10.45;;
77495;SDS011;66600;48.378;9.948;2023-12-29T00:53:19;15.20;;;10.50;;
77495;SDS011;66600;48.378;9.948;2023-12-29T00:53:49;16.15;;;11.00;;
77495;SDS011;66600;48.378;9.948;2023-12-29T00:54:19;14.88;;;10.20;;
77495;SDS011;66600;48.378;9.948;2023-12-29T00:54:50;15.25;;;10.85;;
77495;SDS011;66600;48.378;9.948;2023-12-29T00:55:20;15.07;;;10.95;;
77495;SDS011;66600;48.378;9.948;2023-12-29T00:55:50;15.50;;;10.52;;
77495;SDS011;66600;48.378;9.948;2023-12-29T00:56:21;16.65;;;10.90;;
77495;SDS011;66600;48.378;9.948;2023-12-29T00:56:51;16.23;;;11.02;;
77495;SDS011;66600;48.378;9.948;2023-12-29T00:57:22;16.02;;;11.13;;
77495;SDS011;66600;48.378;9.948;2023-12-29T00:57:52;17.10;;;11.07;;
77495;SDS011;66600;48.378;9.948;2023-12-29T00:58:23;19.98;;;11.25;;
77495;SDS011;66600;48.378;9.948;2023-12-29T00:58:54;17.58;;;11.27;;
77495;SDS011;66600;48.378;9.948;2023-12-29T00:59:24;19.23;;;11.00;;
77495;SDS011;66600;48.378;9.948;2023-12-29T00:59:54;16.77;;;11.07;;
77495;SDS011;66600;48.378;9.948;2023-12-29T01:00:25;14.90;;;10.27;;
77495;SDS011;66600;48.378;9.948;2023-12-29T01:00:55;15.32;;;11.05;;
77495;SDS011;66600;48.378;9.948;2023-12-29T01:01:25;16.27;;;11.05;;
77495;SDS011;66600;48.378;9.948;2023-12-29T01:01:56;14.85;;;10.57;;
77495;SDS011;66600;48.378;9.948;2023-12-29T01:02:26;18.08;;;11.18;;
77495;SDS011;66600;48.378;9.948;2023-12-29T01:02:57;16.15;;;11.25;;
77495;SDS011;66600;48.378;9.948;2023-12-29T01:03:27;18.15;;;11.48;;
77495;SDS011;66600;48.378;9.948;2023-12-29T01:03:57;13.77;;;10.80;;
77495;SDS011;66600;48.378;9.948;2023-12-29T01:04:28;18.20;;;10.93;;
77495;SDS011;66600;48.378;9.948;2023-12-29T01:04:58;16.30;;;11.00;;
77495;SDS011;66600;48.378;9.948;2023-12-29T01:05:28;16.38;;;11.10;;
77495;SDS011;66600;48.378;9.948;2023-12-29T01:05:59;16.13;;;11.10;;
77495;SDS011;66600;48.378;9.948;2023-12-29T01:06:29;17.13;;;11.90;;
77495;SDS011;66600;48.378;9.948;2023-12-29T01:06:59;15.60;;;11.13;;
77495;SDS011;66600;48.378;9.948;2023-12-29T01:07:30;17.23;;;11.13;;
77495;SDS011;66600;48.378;9.948;2023-12-29T01:08:00;15.35;;;10.45;;
77495;SDS011;66600;48.378;9.948;2023-12-29T01:08:31;15.18;;;10.93;;
77495;SDS011;66600;48.378;9.948;2023-12-29T01:09:01;16.38;;;11.05;;
77495;SDS011;66600;48.378;9.948;2023-12-29T01:09:32;16.55;;;10.85;;
77495;SDS011;66600;48.378;9.948;2023-12-29T01:10:08;15.65;;;10.48;;
77495;SDS011;66600;48.378;9.948;2023-12-29T01:10:38;16.42;;;10.95;;
77495;SDS011;66600;48.378;9.948;2023-12-29T01:11:09;15.45;;;10.90;;
77495;SDS011;66600;48.378;9.948;2023-12-29T01:11:40;17.92;;;11.48;;
77495;SDS011;66600;48.378;9.948;2023-12-29T01:12:10;17.33;;;11.60;;
77495;SDS011;66600;48.378;9.948;2023-12-29T01:12:40;17.15;;;11.32;;
77495;SDS011;66600;48.378;9.948;2023-12-29T01:13:11;15.88;;;10.88;;
77495;SDS011;66600;48.378;9.948;2023-12-29T01:13:41;18.80;;;11.77;;
77495;SDS011;66600;48.378;9.948;2023-12-29T01:14:12;17.40;;;11.25;;
77495;SDS011;66600;48.378;9.948;2023-12-29T01:14:42;17.63;;;11.27;;
77495;SDS011;66600;48.378;9.948;2023-12-29T01:15:12;16.30;;;11.25;;
77495;SDS011;66600;48.378;9.948;2023-12-29T01:15:43;15.32;;;11.43;;
77495;SDS011;66600;48.378;9.948;2023-12-29T01:16:16;15.38;;;11.55;;
77495;SDS011;66600;48.378;9.948;2023-12-29T01:16:47;16.58;;;11.25;;
77495;SDS011;66600;48.378;9.948;2023-12-29T01:17:17;16.48;;;11.88;;
77495;SDS011;66600;48.378;9.948;2023-12-29T01:17:47;17.25;;;12.30;;
77495;SDS011;66600;48.378;9.948;2023-12-29T01:18:18;18.90;;;11.98;;
77495;SDS011;66600;48.378;9.948;2023-12-29T01:18:48;18.45;;;12.13;;
77495;SDS011;66600;48.378;9.948;2023-12-29T01:19:18;18.98;;;11.95;;
77495;SDS011;66600;48.378;9.948;2023-12-29T01:19:48;16.88;;;11.98;;
77495;SDS011;66600;48.378;9.948;2023-12-29T01:20:19;19.90;;;12.20;;
77495;SDS011;66600;48.378;9.948;2023-12-29T01:20:49;17.30;;;12.25;;
77495;SDS011;66600;48.378;9.948;2023-12-29T01:21:19;17.25;;;12.65;;
77495;SDS011;66600;48.378;9.948;2023-12-29T01:21:50;18.90;;;12.25;;
77495;SDS011;66600;48.378;9.948;2023-12-29T01:22:20;18.15;;;12.30;;
77495;SDS011;66600;48.378;9.948;2023-12-29T01:22:50;17.15;;;11.80;;
77495;SDS011;66600;48.378;9.948;2023-12-29T01:23:21;18.70;;;11.85;;
77495;SDS011;66600;48.378;9.948;2023-12-29T01:23:51;17.33;;;12.18;;
77495;SDS011;66600;48.378;9.948;2023-12-29T01:24:22;17.40;;;12.30;;
77495;SDS011;66600;48.378;9.948;2023-12-29T01:24:52;17.20;;;12.18;;
77495;SDS011;66600;48.378;9.948;2023-12-29T01:25:22;18.15;;;12.45;;
77495;SDS011;66600;48.378;9.948;2023-12-29T01:25:54;19.00;;;13.18;;
77495;SDS011;66600;48.378;9.948;2023-12-29T01:26:24;17.52;;;12.02;;
77495;SDS011;66600;48.378;9.948;2023-12-29T01:26:55;17.70;;;11.95;;
77495;SDS011;66600;48.378;9.948;2023-12-29T01:27:26;19.50;;;12.82;;
77495;SDS011;66600;48.378;9.948;2023-12-29T01:27:57;17.25;;;12.48;;
77495;SDS011;66600;48.378;9.948;2023-12-29T01:28:27;19.45;;;12.85;;
77495;SDS011;66600;48.378;9.948;2023-12-29T01:28:57;18.08;;;12.45;;
77495;SDS011;66600;48.378;9.948;2023-12-29T01:29:27;18.67;;;12.90;;
77495;SDS011;66600;48.378;9.948;2023-12-29T01:29:58;17.35;;;12.73;;
77495;SDS011;66600;48.378;9.948;2023-12-29T01:30:30;19.40;;;12.98;;
77495;SDS011;66600;48.378;9.948;2023-12-29T01:31:00;19.10;;;12.45;;
77495;SDS011;66600;48.378;9.948;2023-12-29T01:31:30;19.08;;;12.68;;
77495;SDS011;66600;48.378;9.948;2023-12-29T01:32:01;19.33;;;12.02;;
77495;SDS011;66600;48.378;9.948;2023-12-29T01:32:33;18.80;;;12.68;;
77495;SDS011;66600;48.378;9.948;2023-12-29T01:33:03;16.98;;;12.10;;
77495;SDS011;66600;48.378;9.948;2023-12-29T01:33:34;20.02;;;12.63;;
77495;SDS011;66600;48.378;9.948;2023-12-29T01:34:04;19.58;;;12.65;;
77495;SDS011;66600;48.378;9.948;2023-12-29T01:34:35;18.52;;;12.93;;
77495;SDS011;66600;48.378;9.948;2023-12-29T01:35:05;19.25;;;13.10;;
77495;SDS011;66600;48.378;9.948;2023-12-29T01:35:36;17.70;;;12.50;;
77495;SDS011;66600;48.378;9.948;2023-12-29T01:36:07;17.48;;;12.57;;
77495;SDS011;66600;48.378;9.948;2023-12-29T01:36:37;16.92;;;11.95;;
77495;SDS011;66600;48.378;9.948;2023-12-29T01:37:08;18.70;;;12.45;;
77495;SDS011;66600;48.378;9.948;2023-12-29T01:37:38;20.05;;;12.70;;
77495;SDS011;66600;48.378;9.948;2023-12-29T01:38:08;17.50;;;12.68;;
77495;SDS011;66600;48.378;9.948;2023-12-29T01:38:39;16.25;;;12.40;;
77495;SDS011;66600;48.378;9.948;2023-12-29T01:39:09;18.33;;;12.27;;
77495;SDS011;66600;48.378;9.948;2023-12-29T01:39:39;17.98;;;12.57;;
77495;SDS011;66600;48.378;9.948;2023-12-29T01:40:10;17.70;;;12.07;;
77495;SDS011;66600;48.378;9.948;2023-12-29T01:40:47;17.98;;;12.05;;
77495;SDS011;66600;48.378;9.948;2023-12-29T01:41:20;19.70;;;13.27;;
77495;SDS011;66600;48.378;9.948;2023-12-29T01:41:51;19.23;;;12.68;;
77495;SDS011;66600;48.378;9.948;2023-12-29T01:42:21;17.40;;;12.32;;
77495;SDS011;66600;48.378;9.948;2023-12-29T01:42:51;17.50;;;12.15;;
77495;SDS011;66600;48.378;9.948;2023-12-29T01:43:22;19.50;;;12.32;;
77495;SDS011;66600;48.378;9.948;2023-12-29T01:44:31;17.70;;;11.43;;
77495;SDS011;66600;48.378;9.948;2023-12-29T01:45:02;15.95;;;11.43;;
77495;SDS011;66600;48.378;9.948;2023-12-29T01:45:33;17.52;;;12.20;;
77495;SDS011;66600;48.378;9.948;2023-12-29T01:46:04;17.00;;;12.38;;
77495;SDS011;66600;48.378;9.948;2023-12-29T01:46:34;18.50;;;12.48;;
77495;SDS011;66600;48.378;9.948;2023-12-29T01:47:10;18.73;;;12.63;;
77495;SDS011;66600;48.378;9.948;2023-12-29T01:47:46;17.20;;;11.70;;
77495;SDS011;66600;48.378;9.948;2023-12-29T01:48:16;16.80;;;11.40;;
77495;SDS011;66600;48.378;9.948;2023-12-29T01:48:47;19.33;;;11.55;;
77495;SDS011;66600;48.378;9.948;2023-12-29T01:49:18;18.23;;;11.98;;
77495;SDS011;66600;48.378;9.948;2023-12-29T01:49:50;17.42;;;12.02;;
77495;SDS011;66600;48.378;9.948;2023-12-29T01:50:20;18.00;;;12.32;;
77495;SDS011;66600;48.378;9.948;2023-12-29T01:50:52;17.15;;;11.32;;
77495;SDS011;66600;48.378;9.948;2023-12-29T01:51:24;18.00;;;12.50;;
77495;SDS011;66600;48.378;9.948;2023-12-29T01:51:57;17.38;;;11.15;;
77495;SDS011;66600;48.378;9.948;2023-12-29T01:52:29;16.13;;;11.38;;
77495;SDS011;66600;48.378;9.948;2023-12-29T01:52:59;17.83;;;11.63;;
77495;SDS011;66600;48.378;9.948;2023-12-29T01:53:32;16.65;;;11.15;;
77495;SDS011;66600;48.378;9.948;2023-12-29T01:54:03;17.92;;;11.52;;
77495;SDS011;66600;48.378;9.948;2023-12-29T01:54:34;16.67;;;11.52;;
77495;SDS011;66600;48.378;9.948;2023-12-29T01:55:08;15.80;;;11.48;;
77495;SDS011;66600;48.378;9.948;2023-12-29T01:55:41;15.82;;;10.93;;
77495;SDS011;66600;48.378;9.948;2023-12-29T01:56:13;18.40;;;11.57;;
77495;SDS011;66600;48.378;9.948;2023-12-29T01:56:44;17.80;;;11.20;;
77495;SDS011;66600;48.378;9.948;2023-12-29T01:57:15;18.77;;;11.77;;
77495;SDS011;66600;48.378;9.948;2023-12-29T01:57:45;18.02;;;10.95;;
77495;SDS011;66600;48.378;9.948;2023-12-29T01:58:17;15.68;;;11.15;;
77495;SDS011;66600;48.378;9.948;2023-12-29T01:58:49;15.80;;;10.95;;
77495;SDS011;66600;48.378;9.948;2023-12-29T01:59:19;15.70;;;10.90;;
77495;SDS011;66600;48.378;9.948;2023-12-29T01:59:50;17.58;;;11.07;;
77495;SDS011;66600;48.378;9.948;2023-12-29T02:00:20;14.52;;;10.23;;
77495;SDS011;66600;48.378;9.948;2023-12-29T02:00:50;14.70;;;10.95;;
77495;SDS011;66600;48.378;9.948;2023-12-29T02:01:21;16.30;;;10.70;;
77495;SDS011;66600;48.378;9.948;2023-12-29T02:01:53;16.80;;;11.30;;
77495;SDS011;66600;48.378;9.948;2023-12-29T02:02:24;15.90;;;10.60;;
77495;SDS011;66600;48.378;9.948;2023-12-29T02:02:55;15.07;;;10.68;;
77495;SDS011;66600;48.378;9.948;2023-12-29T02:03:25;17.40;;;10.80;;
77495;SDS011;66600;48.378;9.948;2023-12-29T02:03:56;16.35;;;10.82;;
77495;SDS011;66600;48.378;9.948;2023-12-29T02:04:27;15.57;;;10.90;;
77495;SDS011;66600;48.378;9.948;2023-12-29T02:04:58;16.00;;;10.65;;
77495;SDS011;66600;48.378;9.948;2023-12-29T02:05:30;14.50;;;10.02;;
77495;SDS011;66600;48.378;9.948;2023-12-29T02:06:02;15.20;;;9.90;;
77495;SDS011;66600;48.378;9.948;2023-12-29T02:06:34;16.58;;;10.88;;
77495;SDS011;66600;48.378;9.948;2023-12-29T02:07:05;17.83;;;10.30;;
77495;SDS011;66600;48.378;9.948;2023-12-29T02:07:35;14.45;;;9.65;;
77495;SDS011;66600;48.378;9.948;2023-12-29T02:08:06;14.32;;;10.05;;
77495;SDS011;66600;48.378;9.948;2023-12-29T02:08:37;16.33;;;10.30;;
77495;SDS011;66600;48.378;9.948;2023-12-29T02:09:07;15.88;;;10.80;;
77495;SDS011;66600;48.378;9.948;2023-12-29T02:09:38;17.27;;;10.57;;
77495;SDS011;66600;48.378;9.948;2023-12-29T02:10:09;15.00;;;10.07;;
77495;SDS011;66600;48.378;9.948;2023-12-29T02:10:43;13.52;;;9.95;;
77495;SDS011;66600;48.378;9.948;2023-12-29T02:11:14;16.33;;;10.68;;
77495;SDS011;66600;48.378;9.948;2023-12-29T02:11:47;14.57;;;10.27;;
77495;SDS011;66600;48.378;9.948;2023-12-29T02:12:18;15.13;;;10.13;;
77495;SDS011;66600;48.378;9.948;2023-12-29T02:12:50;16.38;;;10.43;;
77495;SDS011;66600;48.378;9.948;2023-12-29T02:13:20;15.25;;;11.07;;
77495;SDS011;66600;48.378;9.948;2023-12-29T02:13:52;14.90;;;10.88;;
77495;SDS011;66600;48.378;9.948;2023-12-29T02:14:22;15.38;;;10.15;;
77495;SDS011;66600;48.378;9.948;2023-12-29T02:14:53;15.75;;;10.48;;
77495;SDS011;66600;48.378;9.948;2023-12-29T02:15:23;17.38;;;10.55;;
77495;SDS011;66600;48.378;9.948;2023-12-29T02:15:54;16.80;;;11.18;;
77495;SDS011;66600;48.378;9.948;2023-12-29T02:16:35;16.48;;;10.43;;
77495;SDS011;66600;48.378;9.948;2023-12-29T02:17:18;14.35;;;10.20;;
77495;SDS011;66600;48.378;9.948;2023-12-29T02:17:59;15.75;;;10.00;;
77495;SDS011;66600;48.378;9.948;2023-12-29T02:18:33;15.80;;;10.57;;
77495;SDS011;66600;48.378;9.948;2023-12-29T02:19:09;15.45;;;10.23;;
77495;SDS011;66600;48.378;9.948;2023-12-29T02:19:47;15.82;;;10.75;;
77495;SDS011;66600;48.378;9.948;2023-12-29T02:20:20;15.48;;;10.10;;
77495;SDS011;66600;48.378;9.948;2023-12-29T02:20:50;16.80;;;10.40;;
77495;SDS011;66600;48.378;9.948;2023-12-29T02:21:24;16.33;;;10.50;;
77495;SDS011;66600;48.378;9.948;2023-12-29T02:21:55;15.55;;;9.48;;
77495;SDS011;66600;48.378;9.948;2023-12-29T02:22:25;15.52;;;10.23;;
77495;SDS011;66600;48.378;9.948;2023-12-29T02:22:56;16.40;;;10.48;;
77495;SDS011;66600;48.378;9.948;2023-12-29T02:23:26;13.68;;;10.20;;
77495;SDS011;66600;48.378;9.948;2023-12-29T02:23:56;15.40;;;10.55;;
77495;SDS011;66600;48.378;9.948;2023-12-29T02:24:27;16.10;;;10.20;;
77495;SDS011;66600;48.378;9.948;2023-12-29T02:24:57;14.48;;;10.15;;
77495;SDS011;66600;48.378;9.948;2023-12-29T02:25:28;15.73;;;10.73;;
77495;SDS011;66600;48.378;9.948;2023-12-29T02:26:01;14.13;;;10.25;;
77495;SDS011;66600;48.378;9.948;2023-12-29T02:26:36;16.50;;;10.63;;
77495;SDS011;66600;48.378;9.948;2023-12-29T02:27:48;16.23;;;10.40;;
77495;SDS011;66600;48.378;9.948;2023-12-29T02:28:43;16.20;;;11.27;;
77495;SDS011;66600;48.378;9.948;2023-12-29T02:29:19;16.23;;;11.32;;
77495;SDS011;66600;48.378;9.948;2023-12-29T02:29:56;17.38;;;11.52;;
77495;SDS011;66600;48.378;9.948;2023-12-29T02:30:41;15.50;;;10.60;;
77495;SDS011;66600;48.378;9.948;2023-12-29T02:31:17;16.05;;;10.70;;
77495;SDS011;66600;48.378;9.948;2023-12-29T02:31:50;15.32;;;10.35;;
77495;SDS011;66600;48.378;9.948;2023-12-29T02:32:24;17.30;;;11.13;;
77495;SDS011;66600;48.378;9.948;2023-12-29T02:32:59;17.00;;;11.00;;
77495;SDS011;66600;48.378;9.948;2023-12-29T02:33:32;16.13;;;11.40;;
77495;SDS011;66600;48.378;9.948;2023-12-29T02:34:07;16.48;;;10.85;;
77495;SDS011;66600;48.378;9.948;2023-12-29T02:34:40;15.30;;;11.05;;
77495;SDS011;66600;48.378;9.948;2023-12-29T02:35:13;15.77;;;10.80;;
77495;SDS011;66600;48.378;9.948;2023-12-29T02:35:48;19.52;;;10.85;;
77495;SDS011;66600;48.378;9.948;2023-12-29T02:36:20;15.75;;;10.65;;
77495;SDS011;66600;48.378;9.948;2023-12-29T02:36:52;14.88;;;10.65;;
77495;SDS011;66600;48.378;9.948;2023-12-29T02:37:24;17.27;;;11.15;;
77495;SDS011;66600;48.378;9.948;2023-12-29T02:37:55;18.20;;;11.10;;
77495;SDS011;66600;48.378;9.948;2023-12-29T02:38:27;16.73;;;11.40;;
77495;SDS011;66600;48.378;9.948;2023-12-29T02:38:58;16.20;;;11.32;;
77495;SDS011;66600;48.378;9.948;2023-12-29T02:39:28;18.38;;;11.73;;
77495;SDS011;66600;48.378;9.948;2023-12-29T02:39:59;15.60;;;10.75;;
77495;SDS011;66600;48.378;9.948;2023-12-29T02:40:29;14.73;;;10.93;;
77495;SDS011;66600;48.378;9.948;2023-12-29T02:41:00;17.17;;;11.90;;
77495;SDS011;66600;48.378;9.948;2023-12-29T02:41:30;16.33;;;11.27;;
77495;SDS011;66600;48.378;9.948;2023-12-29T02:42:01;15.38;;;10.73;;
77495;SDS011;66600;48.378;9.948;2023-12-29T02:42:31;16.92;;;11.45;;
77495;SDS011;66600;48.378;9.948;2023-12-29T02:43:01;17.35;;;11.18;;
77495;SDS011;66600;48.378;9.948;2023-12-29T02:43:32;16.38;;;11.48;;
77495;SDS011;66600;48.378;9.948;2023-12-29T02:44:03;16.55;;;11.45;;
77495;SDS011;66600;48.378;9.948;2023-12-29T02:44:34;15.27;;;11.10;;
77495;SDS011;66600;48.378;9.948;2023-12-29T02:45:04;17.23;;;11.60;;
77495;SDS011;66600;48.378;9.948;2023-12-29T02:45:34;17.48;;;11.35;;
77495;SDS011;66600;48.378;9.948;2023-12-29T02:46:05;15.55;;;11.20;;
77495;SDS011;66600;48.378;9.948;2023-12-29T02:46:35;16.98;;;11.10;;
77495;SDS011;66600;48.378;9.948;2023-12-29T02:47:06;16.77;;;11.00;;
77495;SDS011;66600;48.378;9.948;2023-12-29T02:47:36;16.30;;;11.77;;
77495;SDS011;66600;48.378;9.948;2023-12-29T02:48:07;15.77;;;11.23;;
77495;SDS011;66600;48.378;9.948;2023-12-29T02:48:37;18.48;;;11.80;;
77495;SDS011;66600;48.378;9.948;2023-12-29T02:49:07;17.15;;;11.63;;
77495;SDS011;66600;48.378;9.948;2023-12-29T02:49:42;20.30;;;11.88;;
77495;SDS011;66600;48.378;9.948;2023-12-29T02:50:13;17.73;;;12.63;;
77495;SDS011;66600;48.378;9.948;2023-12-29T02:50:43;17.17;;;11.68;;
77495;SDS011;66600;48.378;9.948;2023-12-29T02:51:13;15.25;;;11.40;;
77495;SDS011;66600;48.378;9.948;2023-12-29T02:51:44;16.33;;;11.38;;
77495;SDS011;66600;48.378;9.948;2023-12-29T02:52:16;15.60;;;11.00;;
77495;SDS011;66600;48.378;9.948;2023-12-29T02:52:46;16.02;;;11.23;;
77495;SDS011;66600;48.378;9.948;2023-12-29T02:53:16;16.38;;;11.60;;
77495;SDS011;66600;48.378;9.948;2023-12-29T02:53:47;17.60;;;11.55;;
77495;SDS011;66600;48.378;9.948;2023-12-29T02:54:18;19.77;;;12.30;;
77495;SDS011;66600;48.378;9.948;2023-12-29T02:54:49;16.10;;;11.55;;
77495;SDS011;66600;48.378;9.948;2023-12-29T02:55:19;16.58;;;11.88;;
77495;SDS011;66600;48.378;9.948;2023-12-29T02:55:49;16.50;;;11.75;;
77495;SDS011;66600;48.378;9.948;2023-12-29T02:56:20;16.95;;;12.32;;
77495;SDS011;66600;48.378;9.948;2023-12-29T02:56:52;16.77;;;11.63;;
77495;SDS011;66600;48.378;9.948;2023-12-29T02:57:22;16.45;;;11.25;;
77495;SDS011;66600;48.378;9.948;2023-12-29T02:57:52;16.75;;;12.02;;
77495;SDS011;66600;48.378;9.948;2023-12-29T02:58:22;17.33;;;12.02;;
77495;SDS011;66600;48.378;9.948;2023-12-29T02:58:53;18.60;;;12.05;;
77495;SDS011;66600;48.378;9.948;2023-12-29T02:59:23;20.58;;;12.10;;
77495;SDS011;66600;48.378;9.948;2023-12-29T02:59:53;18.42;;;12.20;;
77495;SDS011;66600;48.378;9.948;2023-12-29T03:00:24;17.40;;;12.00;;
77495;SDS011;66600;48.378;9.948;2023-12-29T03:00:54;17.95;;;11.82;;
77495;SDS011;66600;48.378;9.948;2023-12-29T03:01:25;18.13;;;12.30;;
77495;SDS011;66600;48.378;9.948;2023-12-29T03:01:55;17.58;;;12.05;;
77495;SDS011;66600;48.378;9.948;2023-12-29T03:02:25;18.15;;;12.10;;
77495;SDS011;66600;48.378;9.948;2023-12-29T03:02:56;18.60;;;12.25;;
77495;SDS011;66600;48.378;9.948;2023-12-29T03:03:26;18.35;;;12.25;;
77495;SDS011;66600;48.378;9.948;2023-12-29T03:03:56;19.70;;;12.77;;